ADDS TAF Board (Experimental) INFO Settings
IDs: Format: Expanded Condensed

KATL - Atlanta/Hartsfield-J, GA, US

Issued at 1359 UTC 23 Jul 2016
Updated at 1459 UTC 23 Jul 2016
Time1452Z 23/15Z 23/16Z 23/17Z 23/18Z 23/19Z 23/20Z 23/21Z 23/22Z 23/23Z 24/00Z 24/01Z 24/02Z 24/03Z
Type OBS PRVL PRVL PRVL PRVL PRVL PRVL
  [TEMP]  
PRVL
  [TEMP]  
PRVL
  [TEMP]  
PRVL
  [TEMP]  
PRVL PRVL PRVL PRVL
VIS 10 >6 >6 >6 >6 >6 >6
  [4]  
>6
  [4]  
>6
  [4]  
>6
  [4]  
>6 >6 >6 >6
CIG 200 -- -- -- -- -- --
  [40]  
--
  [40]  
--
  [40]  
--
  [40]  
-- 250 250 250
Cover BKN SCT SCT SCT SCT SCT SCT
  [BKN]  
SCT
  [BKN]  
SCT
  [BKN]  
SCT
  [BKN]  
SCT BKN BKN BKN
FltCat VFR VFR VFR VFR VFR VFR VFR
  [MVFR]  
VFR
  [MVFR]  
VFR
  [MVFR]  
VFR
  [MVFR]  
VFR VFR VFR VFR
WX -- -- -- -- VCSH VCSH VCSH
  [TSRA]  
VCSH
  [TSRA]  
VCSH
  [TSRA]  
VCSH
  [TSRA]  
VCSH -- -- --
WDir 210 240 240 240 240 240 240
[240]
240
[240]
240
[240]
240
[240]
240 240 240 240
WSpd 5 5 6 6 6 6 6
  [6]  
6
  [6]  
6
  [6]  
6
  [6]  
6 4 4 4
WGst -- -- -- -- -- -- --
  [--]  
--
  [--]  
--
  [--]  
--
  [--]  
-- -- -- --
R08/26
XWnd -4 -3 -3 -3 -3 -3 -3 -3 -3 -3 -3 -2 -2 -2
XGst -- -- -- -- -- -- 0 0 0 0 -- -- -- --
HWnd -3 -4 -5 -5 -5 -5 -5 -5 -5 -5 -5 -3 -3 -3
HGst -- -- -- -- -- -- 0 0 0 0 -- -- -- --
R09/27
XWnd -4 -3 -3 -3 -3 -3 -3 -3 -3 -3 -3 -2 -2 -2
XGst -- -- -- -- -- -- 0 0 0 0 -- -- -- --
HWnd -3 -4 -5 -5 -5 -5 -5 -5 -5 -5 -5 -3 -3 -3
HGst -- -- -- -- -- -- 0 0 0 0 -- -- -- --
R10/28
XWnd -4 -3 -3 -3 -3 -3 -3 -3 -3 -3 -3 -2 -2 -2
XGst -- -- -- -- -- -- 0 0 0 0 -- -- -- --
HWnd -3 -4 -5 -5 -5 -5 -5 -5 -5 -5 -5 -3 -3 -3
HGst -- -- -- -- -- -- 0 0 0 0 -- -- -- --

Raw TAF
KATL 231359Z 2314/2418 24005KT P6SM SCT150
  FM231600 24006KT P6SM SCT035
  FM231800 24006KT P6SM VCSH SCT050
  TEMPO 2320/2324 4SM TSRA BKN040CB
  FM240100 24004KT P6SM FEW070 BKN250
  FM241500 27006KT P6SM SCT040


Raw METAR
KATL 231452Z 21005KT 10SM FEW030 BKN200 BKN250 30/23 A3007 RMK AO2 SLP169 T03000233 51006
KATL 231352Z 22005KT 10SM FEW120 BKN180 BKN250 28/23 A3006 RMK AO2 SLP167 T02830233
KATL 231252Z 24003KT 10SM FEW150 BKN200 BKN250 27/23 A3005 RMK AO2 SLP165 T02720233
KATL 231152Z 28005KT 10SM FEW045 FEW150 BKN200 26/23 A3005 RMK AO2 SLP162 T02560228 10261 20244 53003

METAR Board
Radar Display
Forecast Discussion

TAF Board Legend

Potential Impact
Threat None Slight Moderate High
Visibility (sm) ≥5.1 5.1>X≥3 3>X≥1 <1
Ceiling (100 ft) ≥30.1 30.1>X≥10 10>X≥5 <5
Wind Speed (kt) <10 10≤X<20 20≤X<30 ≥30
Wind Gust (kt) <15 15≤X<25 25≤X<35 ≥35
Weather No Wx Reported VCTS,-TS,-FZRA,SN TS,FZRA +TS,+FZRA,+SN